Time;durP1;ratioP1;P1;durP2;ratioP2;P2;SDS_P1;SDS_P2;PMS_P1;PMS_P2;Temp;Humidity;BMP_temperature;BMP_pressure;BME280_temperature;BME280_humidity;BME280_pressure;Samples;Min_cycle;Max_cycle;Signal;HPM_P1;HPM_P2
2023/09/17 00:01:36;;;;;;;21.60;19.30;;;;;;;15.68;77.04;100447.66;107384;1258;60412;-39
2023/09/17 00:04:06;;;;;;;20.80;18.20;;;;;;;15.67;77.06;100447.17;107204;1254;60392;-39
2023/09/17 00:06:33;;;;;;;22.30;20.00;;;;;;;15.69;77.01;100445.94;107388;1255;73870;-39
2023/09/17 00:09:03;;;;;;;21.90;19.50;;;;;;;15.67;77.03;100444.52;107304;1257;66234;-39
2023/09/17 00:11:31;;;;;;;18.70;15.50;;;;;;;15.62;77.10;100442.17;107208;1257;71396;-39
2023/09/17 00:13:58;;;;;;;20.70;18.40;;;;;;;15.58;77.24;100444.85;107217;1257;61670;-39
2023/09/17 00:16:31;;;;;;;21.80;18.20;;;;;;;15.57;77.33;100440.23;107266;1257;60400;-39
2023/09/17 00:19:00;;;;;;;25.10;19.20;;;;;;;15.60;77.18;100445.88;107165;1256;73850;-39
2023/09/17 00:21:27;;;;;;;22.20;19.80;;;;;;;15.59;77.29;100445.79;107229;1256;66791;-39
2023/09/17 00:23:55;;;;;;;22.10;19.80;;;;;;;15.55;77.47;100445.41;107235;1257;72718;-39
2023/09/17 00:26:22;;;;;;;21.30;19.00;;;;;;;15.52;77.48;100447.64;107223;1256;60080;-39
2023/09/17 00:28:50;;;;;;;20.40;18.30;;;;;;;15.49;77.51;100442.80;107268;1260;59637;-40
2023/09/17 00:31:18;;;;;;;22.20;18.50;;;;;;;15.50;77.32;100445.86;107255;1257;73869;-39
2023/09/17 00:33:46;;;;;;;22.30;19.50;;;;;;;15.51;77.23;100443.95;107224;1256;66650;-39
2023/09/17 00:36:14;;;;;;;21.30;19.10;;;;;;;15.49;77.42;100445.84;107261;1257;72676;-39
2023/09/17 00:38:41;;;;;;;22.00;19.60;;;;;;;15.45;77.64;100447.09;107239;1256;60643;-39
2023/09/17 00:41:09;;;;;;;21.80;19.50;;;;;;;15.43;77.62;100446.36;107247;1256;59470;-39
2023/09/17 00:43:36;;;;;;;21.20;18.90;;;;;;;15.43;77.54;100445.35;107222;1257;73847;-39
2023/09/17 00:46:04;;;;;;;22.60;18.90;;;;;;;15.45;77.41;100441.23;107199;1257;67599;-39
2023/09/17 00:48:32;;;;;;;22.30;19.60;;;;;;;15.45;77.47;100444.29;107156;1259;72694;-39
2023/09/17 00:51:00;;;;;;;21.50;19.20;;;;;;;15.41;77.55;100444.92;107202;1256;60434;-39
2023/09/17 00:53:27;;;;;;;21.20;18.80;;;;;;;15.38;77.66;100443.23;107286;1255;60021;-39
2023/09/17 00:55:55;;;;;;;20.00;17.90;;;;;;;15.39;77.59;100448.09;107255;1256;73824;-40
2023/09/17 00:58:23;;;;;;;20.80;18.30;;;;;;;15.41;77.47;100446.32;107277;1257;68189;-40
2023/09/17 01:00:50;;;;;;;21.70;19.40;;;;;;;15.39;77.45;100446.45;107185;1259;70942;-39
2023/09/17 01:03:18;;;;;;;21.50;19.00;;;;;;;15.36;77.53;100446.46;107209;1256;59593;-39
2023/09/17 01:05:46;;;;;;;21.00;18.60;;;;;;;15.34;77.61;100447.38;107156;1257;60067;-39
2023/09/17 01:08:14;;;;;;;19.80;17.50;;;;;;;15.33;77.55;100446.59;107287;1256;73857;-39
2023/09/17 01:10:41;;;;;;;22.20;18.40;;;;;;;15.35;77.49;100445.27;107202;1254;67593;-39
2023/09/17 01:13:09;;;;;;;21.60;19.40;;;;;;;15.33;77.59;100441.67;107292;1254;71688;-39
2023/09/17 01:15:38;;;;;;;26.90;20.30;;;;;;;15.30;77.64;100439.11;107343;1254;60571;-39
2023/09/17 01:18:06;;;;;;;21.00;18.80;;;;;;;15.26;77.67;100436.00;107421;1254;60597;-39
2023/09/17 01:20:50;;;;;;;19.60;17.60;;;;;;;15.26;77.82;100437.95;107368;1259;73845;-39
2023/09/17 01:23:51;;;;;;;25.90;19.00;;;;;;;15.30;77.73;100435.52;107403;1254;66360;-39
2023/09/17 01:26:26;;;;;;;24.10;20.40;;;;;;;15.28;77.72;100433.23;107372;1256;71698;-39
2023/09/17 01:28:54;;;;;;;25.10;19.50;;;;;;;15.24;77.81;100435.42;107298;1254;60312;-39
2023/09/17 01:31:23;;;;;;;22.70;18.80;;;;;;;15.20;77.88;100436.07;107409;1256;60517;-39
2023/09/17 01:33:51;;;;;;;20.20;17.60;;;;;;;15.20;77.89;100433.18;107369;1258;72605;-39
2023/09/17 01:36:23;;;;;;;21.40;19.10;;;;;;;15.22;77.85;100434.78;107427;1254;67568;-39
2023/09/17 01:38:52;;;;;;;23.10;19.70;;;;;;;15.21;77.92;100434.75;107390;1254;72654;-39
2023/09/17 01:41:21;;;;;;;22.20;19.80;;;;;;;15.17;77.92;100432.88;107424;1256;60430;-39
2023/09/17 01:43:49;;;;;;;21.50;18.90;;;;;;;15.13;78.07;100431.64;107070;1254;60384;-39
2023/09/17 01:46:18;;;;;;;23.20;19.00;;;;;;;15.13;78.04;100430.16;107252;1254;73897;-39
2023/09/17 01:48:47;;;;;;;23.50;19.50;;;;;;;15.14;78.05;100427.78;107248;1254;66310;-39
2023/09/17 01:51:15;;;;;;;21.70;19.40;;;;;;;15.07;78.08;100417.50;107191;1257;72632;-39
2023/09/17 01:53:43;;;;;;;22.80;20.40;;;;;;;15.09;78.17;100424.41;107233;1254;60502;-38
2023/09/17 01:56:12;;;;;;;23.30;18.60;;;;;;;15.06;78.29;100424.02;107265;1254;60380;-39
2023/09/17 01:58:39;;;;;;;20.50;18.30;;;;;;;15.07;78.31;100422.02;107333;1254;73892;-39
2023/09/17 02:01:07;;;;;;;23.30;18.40;;;;;;;15.08;78.29;100421.27;107227;1254;67958;-39
2023/09/17 02:03:35;;;;;;;21.60;19.30;;;;;;;15.05;78.45;100425.10;107470;1254;72730;-39
2023/09/17 02:06:04;;;;;;;25.30;21.10;;;;;;;15.01;78.72;100425.80;107390;1254;60437;-39
2023/09/17 02:08:31;;;;;;;17.30;14.30;;;;;;;14.99;78.77;100427.58;107416;1254;60338;-39
2023/09/17 02:10:59;;;;;;;21.80;17.70;;;;;;;14.99;78.82;100425.16;107396;1254;72605;-40
2023/09/17 02:13:26;;;;;;;22.70;19.30;;;;;;;15.01;78.82;100425.51;107367;1259;67625;-39
2023/09/17 02:15:54;;;;;;;23.30;19.40;;;;;;;15.00;78.87;100425.16;107436;1254;72708;-39
2023/09/17 02:18:22;;;;;;;22.50;19.70;;;;;;;14.96;79.13;100419.80;107237;1257;60581;-39
2023/09/17 02:20:50;;;;;;;21.40;19.00;;;;;;;14.92;79.17;100419.48;107424;1256;60287;-39
2023/09/17 02:23:17;;;;;;;21.00;18.60;;;;;;;14.91;79.21;100416.82;107389;1254;73879;-39
2023/09/17 02:25:46;;;;;;;23.00;19.80;;;;;;;14.94;79.28;100416.79;107426;1254;66264;-39
2023/09/17 02:28:14;;;;;;;21.90;19.50;;;;;;;14.93;79.44;100415.91;107477;1254;72681;-39
2023/09/17 02:30:42;;;;;;;24.30;20.10;;;;;;;14.91;79.63;100414.16;107411;1254;60361;-40
2023/09/17 02:33:10;;;;;;;22.10;19.00;;;;;;;14.88;79.63;100419.09;107414;1254;60335;-39
2023/09/17 02:35:38;;;;;;;23.50;17.70;;;;;;;14.90;79.58;100421.55;107503;1254;72655;-40
2023/09/17 02:38:06;;;;;;;20.80;17.80;;;;;;;14.93;79.29;100414.98;107424;1254;66988;-39
2023/09/17 02:40:33;;;;;;;22.10;19.10;;;;;;;14.93;79.38;100414.50;107354;1254;72637;-39
2023/09/17 02:43:01;;;;;;;20.30;18.00;;;;;;;14.91;79.48;100412.60;107402;1254;61157;-39
2023/09/17 02:45:29;;;;;;;21.30;17.60;;;;;;;14.90;79.49;100408.84;107474;1254;60444;-39
2023/09/17 02:47:57;;;;;;;20.20;18.10;;;;;;;14.91;79.29;100405.35;107383;1254;72616;-39
2023/09/17 02:50:25;;;;;;;19.30;16.30;;;;;;;14.94;79.06;100407.27;107417;1254;66776;-39
2023/09/17 02:52:53;;;;;;;18.40;16.30;;;;;;;14.94;78.73;100407.91;107397;1254;72717;-39
2023/09/17 02:55:22;;;;;;;19.00;15.60;;;;;;;14.90;78.84;100407.58;107235;1257;60553;-39
2023/09/17 02:57:49;;;;;;;22.80;16.60;;;;;;;14.86;78.74;100406.05;107398;1254;60310;-39
2023/09/17 03:00:17;;;;;;;20.00;16.40;;;;;;;14.82;78.76;100403.69;107378;1254;73038;-39
2023/09/17 03:02:50;;;;;;;18.20;15.10;;;;;;;14.81;78.68;100402.52;107268;1254;66800;-39
2023/09/17 03:05:18;;;;;;;17.40;15.60;;;;;;;14.82;78.66;100408.15;107443;1254;72671;-39
2023/09/17 03:07:46;;;;;;;20.90;15.60;;;;;;;14.80;78.73;100409.83;107393;1257;61060;-38
2023/09/17 03:10:18;;;;;;;20.80;16.60;;;;;;;14.76;78.82;100409.21;107427;1254;60293;-39
2023/09/17 03:12:46;;;;;;;19.70;15.50;;;;;;;14.73;78.80;100409.85;107373;1254;73806;-39
2023/09/17 03:15:14;;;;;;;16.80;13.50;;;;;;;14.74;78.83;100411.12;107210;1254;68091;-39
2023/09/17 03:17:42;;;;;;;20.50;15.10;;;;;;;14.78;78.60;100405.33;107498;1254;72704;-39
2023/09/17 03:20:14;;;;;;;17.80;16.00;;;;;;;14.77;78.55;100411.73;107420;1257;60461;-39
2023/09/17 03:25:31;;;;;;;17.10;15.20;;;;;;;14.75;79.01;100412.21;104107;1292;600898;-39
2023/09/17 03:27:59;;;;;;;21.20;15.70;;;;;;;14.77;78.76;100408.83;106590;1267;60458;-39
2023/09/17 03:30:27;;;;;;;22.70;14.90;;;;;;;14.81;78.71;100408.20;106626;1267;59177;-40
2023/09/17 03:32:57;;;;;;;20.60;15.00;;;;;;;14.83;78.68;100410.90;106628;1266;70063;-39
2023/09/17 03:35:37;;;;;;;32.90;15.50;;;;;;;14.79;78.89;100412.55;106651;1267;66612;-39
2023/09/17 03:38:05;;;;;;;20.60;14.70;;;;;;;14.78;79.14;100412.74;106576;1263;140400;-40
2023/09/17 03:40:33;;;;;;;15.70;13.30;;;;;;;14.77;79.24;100409.77;106665;1272;60377;-39
2023/09/17 03:43:02;;;;;;;12.30;9.90;;;;;;;14.81;79.08;100410.16;106721;1270;60095;-39
2023/09/17 03:45:31;;;;;;;16.00;13.30;;;;;;;14.85;78.83;100413.21;106796;1263;70996;-39
2023/09/17 03:47:58;;;;;;;14.80;13.30;;;;;;;14.84;78.92;100410.05;106705;1265;66649;-40
2023/09/17 03:50:30;;;;;;;17.10;13.50;;;;;;;14.81;78.83;100410.94;106821;1264;70983;-39
2023/09/17 03:52:59;;;;;;;13.90;12.50;;;;;;;14.79;78.80;100408.41;106740;1269;60445;-39
2023/09/17 03:55:26;;;;;;;14.20;11.50;;;;;;;14.81;78.58;100410.23;106809;1264;59359;-39
2023/09/17 03:57:56;;;;;;;12.90;11.60;;;;;;;14.84;78.22;100414.58;106627;1270;73068;-39
2023/09/17 04:00:25;;;;;;;16.20;13.00;;;;;;;14.81;77.98;100411.18;106734;1264;66652;-40
2023/09/17 04:02:53;;;;;;;18.70;13.30;;;;;;;14.78;77.97;100412.35;106730;1264;72776;-39
2023/09/17 04:05:21;;;;;;;17.60;12.80;;;;;;;14.74;77.88;100419.77;106773;1267;59685;-39
2023/09/17 04:07:49;;;;;;;13.80;12.50;;;;;;;14.70;77.79;100418.30;106787;1269;60099;-39
2023/09/17 04:10:17;;;;;;;13.70;12.30;;;;;;;14.69;77.69;100419.91;106700;1264;71877;-39
2023/09/17 04:12:45;;;;;;;13.40;12.20;;;;;;;14.70;77.68;100423.27;106788;1264;67602;-39
2023/09/17 04:15:18;;;;;;;14.80;13.30;;;;;;;14.69;77.75;100421.77;106733;1264;71953;-39
2023/09/17 04:17:53;;;;;;;15.00;12.60;;;;;;;14.67;77.71;100425.56;106797;1267;59637;-39
2023/09/17 04:20:21;;;;;;;14.20;13.00;;;;;;;14.65;77.85;100426.70;106806;1264;60018;-39
2023/09/17 04:22:50;;;;;;;14.00;12.70;;;;;;;14.63;77.77;100427.20;106768;1264;71789;-39
2023/09/17 04:25:19;;;;;;;12.70;11.50;;;;;;;14.66;77.75;100427.41;106774;1264;66789;-39
2023/09/17 04:27:49;;;;;;;13.60;12.20;;;;;;;14.70;77.69;100424.55;106734;1264;71518;-39
2023/09/17 04:30:18;;;;;;;;;;;;;;;14.71;77.74;100424.26;106679;1264;59730;-39
2023/09/17 04:32:47;;;;;;;13.80;12.50;;;;;;;14.70;77.79;100423.84;106695;1264;59635;-39
2023/09/17 04:35:15;;;;;;;13.50;12.20;;;;;;;14.67;78.04;100424.39;106777;1267;72311;-39
2023/09/17 04:37:44;;;;;;;13.10;12.00;;;;;;;14.71;78.10;100426.74;106812;1265;67578;-39
2023/09/17 04:40:12;;;;;;;13.60;12.30;;;;;;;14.76;78.19;100427.63;106745;1270;71709;-39
2023/09/17 04:42:48;;;;;;;13.20;12.00;;;;;;;14.82;78.26;100430.45;106717;1267;59652;-39
2023/09/17 04:45:31;;;;;;;14.40;13.10;;;;;;;14.82;78.48;100425.30;106757;1267;59836;-39
2023/09/17 04:47:59;;;;;;;14.20;12.40;;;;;;;14.84;78.69;100420.29;106640;1264;73174;-39
2023/09/17 04:50:27;;;;;;;13.00;11.70;;;;;;;14.87;78.61;100423.23;106679;1267;66424;-39
2023/09/17 04:52:55;;;;;;;12.40;11.20;;;;;;;14.93;78.66;100420.83;106665;1267;72720;-39
2023/09/17 04:55:24;;;;;;;13.70;12.50;;;;;;;14.99;78.77;100417.90;106742;1267;59649;-39
2023/09/17 04:57:53;;;;;;;14.40;13.00;;;;;;;15.03;78.93;100417.57;106751;1267;59595;-39
2023/09/17 05:00:20;;;;;;;15.50;14.00;;;;;;;15.05;79.03;100421.21;106716;1266;73122;-39
2023/09/17 05:02:49;;;;;;;14.30;13.00;;;;;;;15.06;79.16;100425.83;106751;1264;66305;-39
2023/09/17 05:05:19;;;;;;;14.50;13.20;;;;;;;15.11;79.20;100423.04;106744;1264;72697;-39
2023/09/17 05:07:52;;;;;;;14.70;13.30;;;;;;;15.21;79.25;100422.27;106783;1266;60481;-39
2023/09/17 05:10:20;;;;;;;15.40;13.90;;;;;;;15.28;79.24;100420.11;106758;1264;59934;-40
2023/09/17 05:12:48;;;;;;;16.90;15.30;;;;;;;15.30;79.59;100417.19;106725;1265;73079;-39
2023/09/17 05:15:16;;;;;;;15.70;14.30;;;;;;;15.34;79.98;100419.82;106668;1267;66639;-39
2023/09/17 05:17:44;;;;;;;15.00;13.40;;;;;;;15.39;80.06;100420.14;106675;1271;72757;-39
2023/09/17 05:20:11;;;;;;;15.00;13.60;;;;;;;15.46;80.14;100418.46;106718;1269;61712;-39
2023/09/17 05:22:39;;;;;;;15.60;14.10;;;;;;;15.53;80.35;100418.52;106737;1267;59634;-39
2023/09/17 05:25:08;;;;;;;16.30;13.60;;;;;;;15.60;80.53;100415.36;106737;1264;71802;-39
2023/09/17 05:27:37;;;;;;;15.40;13.80;;;;;;;15.63;80.41;100421.66;106769;1267;66301;-40
2023/09/17 05:30:05;;;;;;;14.10;12.60;;;;;;;15.67;80.34;100418.35;106687;1267;70455;-40
2023/09/17 05:32:33;;;;;;;14.00;12.60;;;;;;;15.72;80.45;100420.77;106755;1267;61730;-40
2023/09/17 05:35:03;;;;;;;13.50;12.10;;;;;;;15.79;80.18;100415.55;106803;1267;59746;-38
2023/09/17 05:37:31;;;;;;;;;;;;;;;15.87;80.14;100418.09;106784;1267;72328;-39
2023/09/17 05:40:00;;;;;;;14.60;12.80;;;;;;;15.92;80.01;100415.36;106726;1267;66411;-39
2023/09/17 05:42:29;;;;;;;14.80;13.10;;;;;;;15.95;79.96;100415.79;106707;1264;71476;-39
2023/09/17 05:44:57;;;;;;;13.50;12.20;;;;;;;15.99;79.89;100412.02;106765;1267;60414;-40
2023/09/17 05:47:25;;;;;;;17.70;11.80;;;;;;;16.09;79.87;100417.08;106752;1264;59497;-40
2023/09/17 05:49:55;;;;;;;14.30;12.90;;;;;;;16.20;79.63;100417.61;106780;1264;72153;-40
2023/09/17 05:52:24;;;;;;;15.50;12.50;;;;;;;16.28;79.19;100414.58;106783;1267;66611;-40
2023/09/17 05:54:52;;;;;;;14.30;12.80;;;;;;;16.32;78.96;100414.71;106812;1267;72802;-40
2023/09/17 05:57:19;;;;;;;15.30;13.70;;;;;;;16.33;78.66;100414.89;106852;1266;61003;-40
2023/09/17 05:59:47;;;;;;;16.70;13.70;;;;;;;16.38;78.30;100418.77;106850;1261;59721;-40
2023/09/17 06:02:15;;;;;;;14.30;11.90;;;;;;;16.44;77.77;100421.11;106835;1264;73091;-40
2023/09/17 06:04:47;;;;;;;14.70;13.10;;;;;;;16.50;77.50;100421.73;106881;1261;66311;-40
2023/09/17 06:07:15;;;;;;;16.00;13.00;;;;;;;16.57;77.71;100425.51;106842;1260;71717;-40
2023/09/17 06:09:42;;;;;;;16.30;13.10;;;;;;;16.64;77.74;100428.19;106808;1267;60056;-40
2023/09/17 06:12:10;;;;;;;14.60;12.50;;;;;;;16.69;77.39;100425.98;106857;1264;59480;-40
2023/09/17 06:14:39;;;;;;;12.30;11.00;;;;;;;16.79;77.26;100427.66;106853;1261;73020;-40
2023/09/17 06:17:07;;;;;;;14.00;11.30;;;;;;;16.91;76.84;100428.39;106842;1260;66276;-40
2023/09/17 06:19:37;;;;;;;12.90;11.70;;;;;;;17.03;76.37;100432.11;106885;1264;72686;-40
2023/09/17 06:22:05;;;;;;;13.30;11.80;;;;;;;17.12;75.90;100434.55;106859;1261;60153;-40
2023/09/17 06:24:33;;;;;;;12.90;11.40;;;;;;;17.18;75.39;100427.10;106874;1261;59685;-40
2023/09/17 06:27:00;;;;;;;15.20;10.90;;;;;;;17.24;74.82;100431.54;106864;1260;73032;-40
2023/09/17 06:29:28;;;;;;;11.60;10.40;;;;;;;17.33;74.00;100434.60;106864;1261;67616;-40
2023/09/17 06:31:55;;;;;;;12.80;10.00;;;;;;;17.44;73.47;100433.35;106881;1261;71704;-40
2023/09/17 06:34:23;;;;;;;12.60;10.30;;;;;;;17.53;73.29;100432.33;106863;1264;59617;-40
2023/09/17 06:36:51;;;;;;;11.90;10.70;;;;;;;17.59;72.60;100438.18;106845;1260;60031;-40
2023/09/17 06:39:19;;;;;;;13.20;11.70;;;;;;;17.64;72.72;100436.84;106872;1261;72709;-40
2023/09/17 06:41:47;;;;;;;11.20;9.80;;;;;;;17.71;72.90;100435.32;106866;1261;66520;-40
2023/09/17 06:44:16;;;;;;;10.90;9.60;;;;;;;17.85;72.20;100438.45;106869;1264;71385;-40
2023/09/17 06:46:43;;;;;;;12.60;10.20;;;;;;;17.95;72.16;100437.34;106857;1262;59909;-40
2023/09/17 06:49:11;;;;;;;11.70;10.20;;;;;;;18.02;71.05;100442.96;106934;1260;60492;-40
2023/09/17 06:51:39;;;;;;;11.90;10.20;;;;;;;18.05;70.53;100437.73;106849;1266;73040;-40
2023/09/17 06:54:06;;;;;;;11.50;10.40;;;;;;;18.11;70.97;100437.69;106871;1263;66293;-40
2023/09/17 06:56:34;;;;;;;12.40;11.10;;;;;;;18.21;70.98;100434.77;106860;1263;71403;-40
2023/09/17 06:59:02;;;;;;;11.30;9.30;;;;;;;18.33;70.68;100435.83;106851;1263;61667;-40
2023/09/17 07:01:30;;;;;;;9.20;8.30;;;;;;;18.40;69.57;100423.79;106858;1260;60237;-40
2023/09/17 07:03:58;;;;;;;10.80;8.30;;;;;;;18.58;69.03;100435.97;106871;1262;73122;-40
2023/09/17 07:06:25;;;;;;;9.70;8.00;;;;;;;18.65;68.65;100432.07;106867;1264;67967;-40
2023/09/17 07:08:55;;;;;;;10.60;8.40;;;;;;;18.73;67.74;100435.39;106856;1263;72784;-39
2023/09/17 07:11:23;;;;;;;11.40;8.60;;;;;;;18.74;66.81;100426.05;106900;1264;60491;-41
2023/09/17 07:13:50;;;;;;;11.00;8.10;;;;;;;18.89;66.89;100439.44;106873;1266;59512;-38
2023/09/17 07:16:19;;;;;;;9.60;8.70;;;;;;;18.97;66.67;100438.34;106855;1262;73098;-39
2023/09/17 07:18:46;;;;;;;10.20;8.40;;;;;;;19.03;64.97;100440.41;107015;1264;67610;-39
2023/09/17 07:21:14;;;;;;;10.90;7.40;;;;;;;19.05;64.50;100433.73;106825;1263;72670;-39
2023/09/17 07:23:42;;;;;;;8.40;7.60;;;;;;;19.07;62.87;100432.08;106829;1266;59658;-39
2023/09/17 07:26:12;;;;;;;9.60;7.80;;;;;;;19.09;61.93;100437.11;106859;1263;59288;-39
2023/09/17 07:28:40;;;;;;;8.40;7.10;;;;;;;19.10;60.61;100435.63;106889;1264;73025;-39
2023/09/17 07:31:10;;;;;;;8.00;6.80;;;;;;;19.12;61.65;100431.14;106855;1264;67614;-39
2023/09/17 07:33:39;;;;;;;;;;;;;;;19.19;61.94;100430.37;106866;1263;72705;-39
2023/09/17 07:36:06;;;;;;;8.80;6.90;;;;;;;19.27;61.77;100426.77;107077;1258;60498;-39
2023/09/17 07:38:34;;;;;;;10.10;7.00;;;;;;;19.36;61.60;100423.55;107224;1257;59623;-39
2023/09/17 07:41:02;;;;;;;8.00;6.80;;;;;;;19.45;60.86;100419.95;107221;1257;73895;-39
2023/09/17 07:43:30;;;;;;;7.40;6.50;;;;;;;19.53;60.45;100417.83;107246;1261;67569;-39
2023/09/17 07:45:57;;;;;;;8.00;6.80;;;;;;;19.63;59.68;100419.88;107208;1257;71463;-39
2023/09/17 07:48:25;;;;;;;7.20;6.50;;;;;;;19.72;59.79;100419.63;107196;1257;60424;-39
2023/09/17 07:51:00;;;;;;;7.00;6.20;;;;;;;19.81;58.07;100422.61;107193;1257;60417;-39
2023/09/17 07:53:27;;;;;;;8.90;6.70;;;;;;;19.90;58.28;100423.36;107217;1258;72583;-39
2023/09/17 07:55:56;;;;;;;7.20;6.50;;;;;;;20.00;58.48;100422.48;107181;1257;68108;-39
2023/09/17 07:58:24;;;;;;;7.60;6.90;;;;;;;20.09;57.42;100421.05;107220;1257;72755;-39
2023/09/17 08:00:53;;;;;;;9.50;6.10;;;;;;;20.17;56.48;100421.02;107185;1257;60453;-39
2023/09/17 08:03:21;;;;;;;7.50;6.80;;;;;;;20.25;56.54;100419.96;107249;1257;60338;-39
2023/09/17 08:05:49;;;;;;;7.50;6.60;;;;;;;20.33;54.35;100416.90;107266;1258;73881;-39
2023/09/17 08:08:17;;;;;;;6.90;6.20;;;;;;;20.39;54.43;100414.98;107238;1257;67563;-39
2023/09/17 08:10:44;;;;;;;6.80;6.10;;;;;;;20.45;54.51;100413.70;107191;1257;72674;-39
2023/09/17 08:13:12;;;;;;;7.60;6.20;;;;;;;20.54;54.45;100414.30;107237;1258;60434;-39
2023/09/17 08:15:40;;;;;;;9.20;6.30;;;;;;;20.63;53.75;100411.80;107207;1257;60597;-39
2023/09/17 08:18:07;;;;;;;6.80;6.10;;;;;;;20.72;53.91;100412.23;107209;1257;74335;-39
2023/09/17 08:20:35;;;;;;;6.70;5.80;;;;;;;20.82;52.83;100413.04;107267;1257;67882;-40
2023/09/17 08:23:04;;;;;;;6.10;5.50;;;;;;;20.90;52.06;100409.45;107213;1257;72142;-40
2023/09/17 08:25:33;;;;;;;7.60;6.00;;;;;;;20.97;53.14;100409.39;107294;1257;61859;-40
2023/09/17 08:28:02;;;;;;;6.20;5.60;;;;;;;21.09;51.78;100411.13;107241;1257;61022;-39
2023/09/17 08:30:35;;;;;;;6.30;5.70;;;;;;;21.18;49.33;100411.32;107195;1257;73850;-39
2023/09/17 08:33:04;;;;;;;6.70;5.70;;;;;;;21.20;48.14;100408.08;107208;1257;67886;-39
2023/09/17 08:35:32;;;;;;;6.60;5.30;;;;;;;21.21;48.41;100404.67;107230;1257;71394;-39
2023/09/17 08:38:00;;;;;;;6.20;5.60;;;;;;;21.24;48.28;100403.00;107174;1258;61939;-39
2023/09/17 08:40:28;;;;;;;7.80;5.40;;;;;;;21.28;47.64;100401.95;107210;1257;60441;-39
2023/09/17 08:42:59;;;;;;;7.20;5.30;;;;;;;21.31;46.80;100402.63;107133;1256;73842;-39
2023/09/17 08:45:28;;;;;;;5.90;5.10;;;;;;;21.35;46.63;100401.66;107198;1262;67635;-39
2023/09/17 08:47:56;;;;;;;5.90;5.20;;;;;;;21.41;47.14;100398.45;107272;1258;72702;-39
2023/09/17 08:50:24;;;;;;;9.20;5.00;;;;;;;21.48;46.00;100400.76;107221;1257;60249;-39
2023/09/17 08:52:56;;;;;;;7.20;5.30;;;;;;;21.53;45.60;100399.05;107279;1257;60396;-39
2023/09/17 08:55:24;;;;;;;6.20;5.40;;;;;;;21.58;46.12;100398.05;107079;1257;73852;-39
2023/09/17 08:58:15;;;;;;;8.00;5.80;;;;;;;21.63;45.80;100398.55;107243;1257;68185;-39
2023/09/17 09:00:46;;;;;;;9.20;5.70;;;;;;;21.69;45.32;100397.00;107258;1257;72724;-39
2023/09/17 09:03:14;;;;;;;6.80;5.60;;;;;;;21.74;46.12;100398.77;107034;1257;60501;-39
2023/09/17 09:05:45;;;;;;;6.80;5.70;;;;;;;21.83;45.54;100399.38;107233;1258;60325;-39
2023/09/17 09:08:13;;;;;;;6.00;5.40;;;;;;;21.92;46.14;100393.23;107245;1257;72688;-39
2023/09/17 09:10:41;;;;;;;6.50;5.40;;;;;;;22.06;44.84;100391.59;107254;1257;67588;-39
2023/09/17 09:13:09;;;;;;;6.70;5.90;;;;;;;22.17;45.43;100386.25;107231;1261;72710;-39
2023/09/17 09:15:36;;;;;;;6.40;5.30;;;;;;;22.29;44.93;100384.92;107213;1257;60434;-39
2023/09/17 09:18:05;;;;;;;9.40;5.90;;;;;;;22.44;45.07;100386.39;107071;1257;60498;-39
2023/09/17 09:20:32;;;;;;;5.90;5.30;;;;;;;22.60;44.78;100387.05;107246;1257;74311;-39
2023/09/17 09:23:00;;;;;;;5.30;4.80;;;;;;;22.75;43.43;100387.33;107054;1257;66852;-39
2023/09/17 09:25:28;;;;;;;5.90;5.20;;;;;;;22.85;42.37;100387.81;107214;1257;72708;-39
2023/09/17 09:28:00;;;;;;;5.90;5.30;;;;;;;22.93;42.50;100387.30;107028;1264;60459;-39
2023/09/17 09:30:28;;;;;;;6.70;5.30;;;;;;;23.03;42.52;100380.89;107098;1257;60529;-40
2023/09/17 09:32:56;;;;;;;5.80;5.20;;;;;;;23.13;41.90;100382.27;107263;1257;73853;-40
2023/09/17 09:35:24;;;;;;;7.20;5.20;;;;;;;23.19;42.18;100385.77;107210;1257;66321;-38
2023/09/17 09:37:53;;;;;;;6.70;5.00;;;;;;;23.28;41.81;100378.91;107181;1257;72696;-39
2023/09/17 09:40:21;;;;;;;5.60;5.00;;;;;;;23.44;42.43;100378.19;107129;1257;60332;-39
2023/09/17 09:42:49;;;;;;;9.60;5.50;;;;;;;23.63;42.12;100379.68;107213;1257;60286;-39
2023/09/17 09:45:17;;;;;;;6.40;4.80;;;;;;;23.78;41.17;100378.58;107201;1262;73892;-39
2023/09/17 09:47:49;;;;;;;5.10;4.50;;;;;;;23.88;41.05;100377.07;107066;1256;67336;-39
2023/09/17 09:50:24;;;;;;;7.10;5.00;;;;;;;23.99;41.34;100382.23;107228;1257;73121;-39
2023/09/17 09:52:53;;;;;;;6.00;5.00;;;;;;;24.14;40.98;100373.88;107226;1257;60459;-40
2023/09/17 09:55:24;;;;;;;7.50;5.00;;;;;;;24.29;41.05;100380.55;107255;1257;60505;-39
2023/09/17 09:57:52;;;;;;;6.00;5.30;;;;;;;24.44;40.14;100377.95;107216;1257;72667;-39
2023/09/17 10:00:29;;;;;;;6.90;5.00;;;;;;;24.49;39.66;100375.48;107040;1257;67558;-39
2023/09/17 10:02:57;;;;;;;6.60;4.70;;;;;;;24.51;39.83;100378.27;107031;1257;72724;-39
2023/09/17 10:05:36;;;;;;;5.30;4.80;;;;;;;24.60;39.82;100376.55;107005;1257;60428;-39
2023/09/17 10:08:05;;;;;;;5.30;4.80;;;;;;;24.77;39.65;100382.84;107206;1257;60396;-39
2023/09/17 10:10:34;;;;;;;7.00;4.70;;;;;;;24.85;38.06;100379.33;107221;1257;74021;-39
2023/09/17 10:13:05;;;;;;;7.20;5.20;;;;;;;24.92;38.80;100385.20;107246;1256;66479;-40
2023/09/17 10:15:34;;;;;;;6.20;5.00;;;;;;;25.01;37.61;100378.41;107218;1257;72680;-40
2023/09/17 10:18:04;;;;;;;5.20;4.70;;;;;;;25.07;37.88;100378.82;107210;1257;60361;-39
2023/09/17 10:20:31;;;;;;;6.40;5.20;;;;;;;25.20;38.49;100381.68;107255;1257;60421;-39
2023/09/17 10:22:59;;;;;;;5.20;4.70;;;;;;;25.37;37.48;100374.75;107045;1257;73843;-39
2023/09/17 10:25:28;;;;;;;5.80;5.10;;;;;;;25.53;37.05;100373.30;107042;1257;67928;-40
2023/09/17 10:27:56;;;;;;;6.60;5.00;;;;;;;25.69;36.58;100368.06;107227;1259;72702;-39
2023/09/17 10:30:23;;;;;;;5.60;5.00;;;;;;;25.77;35.66;100365.88;107202;1257;60409;-39
2023/09/17 10:32:51;;;;;;;8.90;5.20;;;;;;;25.82;35.92;100366.05;107210;1257;60322;-39
2023/09/17 10:35:20;;;;;;;6.00;5.00;;;;;;;25.89;35.59;100364.74;107192;1257;74261;-40
2023/09/17 10:37:47;;;;;;;5.70;4.30;;;;;;;25.97;34.52;100359.34;107215;1257;66318;-40
2023/09/17 10:40:15;;;;;;;4.90;4.40;;;;;;;26.14;34.76;100359.27;107029;1257;72670;-39
2023/09/17 10:42:43;;;;;;;5.50;4.50;;;;;;;26.35;34.59;100354.85;107047;1263;60428;-40
2023/09/17 10:45:11;;;;;;;5.00;4.50;;;;;;;26.56;33.84;100351.30;107030;1257;59900;-41
2023/09/17 10:47:38;;;;;;;8.00;5.40;;;;;;;26.64;33.43;100351.51;107029;1257;73877;-40
2023/09/17 10:50:07;;;;;;;6.50;5.00;;;;;;;26.67;33.97;100342.44;107203;1257;66289;-40
2023/09/17 10:52:36;;;;;;;5.90;5.10;;;;;;;26.83;34.67;100337.23;107183;1257;72725;-40
2023/09/17 10:55:07;;;;;;;7.30;4.80;;;;;;;27.14;34.64;100336.39;107172;1257;61137;-40
2023/09/17 10:57:45;;;;;;;5.30;4.80;;;;;;;27.45;33.07;100332.16;107224;1257;60425;-40
2023/09/17 11:00:17;;;;;;;5.00;4.50;;;;;;;27.58;32.23;100335.23;107228;1262;74201;-40
2023/09/17 11:02:50;;;;;;;7.00;4.50;;;;;;;27.61;32.46;100330.02;107256;1257;66669;-40
2023/09/17 11:05:19;;;;;;;5.50;4.60;;;;;;;27.70;31.95;100326.42;107205;1258;72697;-40
2023/09/17 11:07:47;;;;;;;5.90;4.90;;;;;;;27.66;31.43;100328.18;107234;1257;60434;-40
2023/09/17 11:10:14;;;;;;;5.40;4.30;;;;;;;27.59;31.55;100326.66;107056;1257;60467;-40
2023/09/17 11:12:57;;;;;;;5.30;4.50;;;;;;;27.62;31.39;100322.02;107097;1257;73897;-40
2023/09/17 11:15:25;;;;;;;5.80;3.90;;;;;;;27.69;31.02;100320.11;107060;1257;67572;-40
2023/09/17 11:18:00;;;;;;;5.60;4.20;;;;;;;27.72;30.74;100324.70;107234;1257;73147;-40